sensor_id;sensor_type;location;lat;lon;timestamp;P1;durP1;ratioP1;P2;durP2;ratioP2
23676;SDS011;31493;49.058;12.190;2023-02-28T00:00:24;12.55;;;7.45;;
23676;SDS011;31493;49.058;12.190;2023-02-28T00:02:51;12.45;;;6.93;;
23676;SDS011;31493;49.058;12.190;2023-02-28T00:05:19;9.77;;;6.10;;
23676;SDS011;31493;49.058;12.190;2023-02-28T00:07:49;13.05;;;6.47;;
23676;SDS011;31493;49.058;12.190;2023-02-28T00:10:18;13.05;;;7.13;;
23676;SDS011;31493;49.058;12.190;2023-02-28T00:12:47;12.82;;;6.82;;
23676;SDS011;31493;49.058;12.190;2023-02-28T00:17:42;9.60;;;6.20;;
23676;SDS011;31493;49.058;12.190;2023-02-28T00:20:10;13.75;;;8.23;;
23676;SDS011;31493;49.058;12.190;2023-02-28T00:22:39;10.93;;;6.85;;
23676;SDS011;31493;49.058;12.190;2023-02-28T00:25:07;12.55;;;7.07;;
23676;SDS011;31493;49.058;12.190;2023-02-28T00:27:35;9.73;;;6.10;;
23676;SDS011;31493;49.058;12.190;2023-02-28T00:30:05;12.38;;;6.90;;
23676;SDS011;31493;49.058;12.190;2023-02-28T00:32:34;9.27;;;6.18;;
23676;SDS011;31493;49.058;12.190;2023-02-28T00:35:02;12.00;;;6.20;;
23676;SDS011;31493;49.058;12.190;2023-02-28T00:37:29;9.98;;;5.90;;
23676;SDS011;31493;49.058;12.190;2023-02-28T00:39:56;8.73;;;6.03;;
23676;SDS011;31493;49.058;12.190;2023-02-28T00:42:24;10.38;;;6.15;;
23676;SDS011;31493;49.058;12.190;2023-02-28T00:44:51;9.73;;;6.63;;
23676;SDS011;31493;49.058;12.190;2023-02-28T00:47:19;9.80;;;6.18;;
23676;SDS011;31493;49.058;12.190;2023-02-28T00:49:46;12.45;;;6.57;;
23676;SDS011;31493;49.058;12.190;2023-02-28T00:52:13;11.68;;;6.07;;
23676;SDS011;31493;49.058;12.190;2023-02-28T00:54:40;9.50;;;6.18;;
23676;SDS011;31493;49.058;12.190;2023-02-28T00:57:07;10.30;;;5.85;;
23676;SDS011;31493;49.058;12.190;2023-02-28T00:59:34;11.55;;;6.28;;
23676;SDS011;31493;49.058;12.190;2023-02-28T01:02:01;12.57;;;6.78;;
23676;SDS011;31493;49.058;12.190;2023-02-28T01:04:30;10.30;;;6.57;;
23676;SDS011;31493;49.058;12.190;2023-02-28T01:06:57;10.35;;;6.72;;
23676;SDS011;31493;49.058;12.190;2023-02-28T01:09:24;9.73;;;6.30;;
23676;SDS011;31493;49.058;12.190;2023-02-28T01:11:51;8.75;;;5.60;;
23676;SDS011;31493;49.058;12.190;2023-02-28T01:14:18;8.95;;;6.18;;
23676;SDS011;31493;49.058;12.190;2023-02-28T01:16:45;9.20;;;5.38;;
23676;SDS011;31493;49.058;12.190;2023-02-28T01:19:12;14.10;;;6.47;;
23676;SDS011;31493;49.058;12.190;2023-02-28T01:21:41;14.20;;;7.07;;
23676;SDS011;31493;49.058;12.190;2023-02-28T01:24:08;11.40;;;6.10;;
23676;SDS011;31493;49.058;12.190;2023-02-28T01:26:35;10.90;;;6.82;;
23676;SDS011;31493;49.058;12.190;2023-02-28T01:29:02;9.27;;;5.75;;
23676;SDS011;31493;49.058;12.190;2023-02-28T01:31:29;10.52;;;5.82;;
23676;SDS011;31493;49.058;12.190;2023-02-28T01:33:56;10.65;;;5.88;;
23676;SDS011;31493;49.058;12.190;2023-02-28T01:36:24;11.20;;;5.57;;
23676;SDS011;31493;49.058;12.190;2023-02-28T01:38:52;9.77;;;6.25;;
23676;SDS011;31493;49.058;12.190;2023-02-28T01:41:21;11.02;;;6.38;;
23676;SDS011;31493;49.058;12.190;2023-02-28T01:43:54;13.40;;;7.18;;
23676;SDS011;31493;49.058;12.190;2023-02-28T01:48:57;14.02;;;6.82;;
23676;SDS011;31493;49.058;12.190;2023-02-28T01:51:29;10.75;;;7.47;;
23676;SDS011;31493;49.058;12.190;2023-02-28T01:54:02;12.52;;;6.75;;
23676;SDS011;31493;49.058;12.190;2023-02-28T01:56:40;10.13;;;5.90;;
23676;SDS011;31493;49.058;12.190;2023-02-28T01:59:11;13.45;;;7.32;;
23676;SDS011;31493;49.058;12.190;2023-02-28T02:01:40;13.15;;;7.35;;
23676;SDS011;31493;49.058;12.190;2023-02-28T02:04:08;11.88;;;7.22;;
23676;SDS011;31493;49.058;12.190;2023-02-28T02:06:36;14.43;;;7.45;;
23676;SDS011;31493;49.058;12.190;2023-02-28T02:09:08;16.58;;;6.88;;
23676;SDS011;31493;49.058;12.190;2023-02-28T02:11:35;10.82;;;6.82;;
23676;SDS011;31493;49.058;12.190;2023-02-28T02:14:07;9.07;;;5.50;;
23676;SDS011;31493;49.058;12.190;2023-02-28T02:16:58;13.13;;;7.38;;
23676;SDS011;31493;49.058;12.190;2023-02-28T02:19:53;11.23;;;7.18;;
23676;SDS011;31493;49.058;12.190;2023-02-28T02:22:53;13.18;;;7.50;;
23676;SDS011;31493;49.058;12.190;2023-02-28T02:25:38;8.93;;;5.40;;
23676;SDS011;31493;49.058;12.190;2023-02-28T02:28:17;11.10;;;6.82;;
23676;SDS011;31493;49.058;12.190;2023-02-28T02:31:05;12.10;;;7.60;;
23676;SDS011;31493;49.058;12.190;2023-02-28T02:34:16;12.02;;;7.47;;
23676;SDS011;31493;49.058;12.190;2023-02-28T02:36:57;15.85;;;7.68;;
23676;SDS011;31493;49.058;12.190;2023-02-28T02:39:36;13.05;;;7.80;;
23676;SDS011;31493;49.058;12.190;2023-02-28T02:42:12;11.75;;;7.07;;
23676;SDS011;31493;49.058;12.190;2023-02-28T02:44:43;12.38;;;7.32;;
23676;SDS011;31493;49.058;12.190;2023-02-28T02:47:17;15.80;;;8.15;;
23676;SDS011;31493;49.058;12.190;2023-02-28T02:49:48;15.55;;;8.13;;
23676;SDS011;31493;49.058;12.190;2023-02-28T02:52:20;10.75;;;6.93;;
23676;SDS011;31493;49.058;12.190;2023-02-28T02:54:54;13.40;;;7.60;;
23676;SDS011;31493;49.058;12.190;2023-02-28T02:57:25;12.18;;;7.22;;
23676;SDS011;31493;49.058;12.190;2023-02-28T02:59:56;15.30;;;7.88;;
23676;SDS011;31493;49.058;12.190;2023-02-28T03:02:24;11.55;;;6.90;;
23676;SDS011;31493;49.058;12.190;2023-02-28T03:07:26;16.05;;;8.07;;
23676;SDS011;31493;49.058;12.190;2023-02-28T03:09:54;12.43;;;8.07;;
23676;SDS011;31493;49.058;12.190;2023-02-28T03:12:23;15.45;;;8.95;;
23676;SDS011;31493;49.058;12.190;2023-02-28T03:14:59;13.52;;;8.25;;
23676;SDS011;31493;49.058;12.190;2023-02-28T03:20:30;14.05;;;8.32;;
23676;SDS011;31493;49.058;12.190;2023-02-28T03:23:05;16.80;;;8.07;;
23676;SDS011;31493;49.058;12.190;2023-02-28T03:25:41;15.90;;;9.30;;
23676;SDS011;31493;49.058;12.190;2023-02-28T03:28:19;13.48;;;7.53;;
23676;SDS011;31493;49.058;12.190;2023-02-28T03:30:55;13.38;;;8.13;;
23676;SDS011;31493;49.058;12.190;2023-02-28T03:33:28;14.95;;;8.63;;
23676;SDS011;31493;49.058;12.190;2023-02-28T03:36:01;14.43;;;7.97;;
23676;SDS011;31493;49.058;12.190;2023-02-28T03:38:33;15.05;;;8.82;;
23676;SDS011;31493;49.058;12.190;2023-02-28T03:41:05;15.57;;;8.90;;
23676;SDS011;31493;49.058;12.190;2023-02-28T03:43:36;15.60;;;9.20;;
23676;SDS011;31493;49.058;12.190;2023-02-28T03:46:08;16.35;;;9.35;;
23676;SDS011;31493;49.058;12.190;2023-02-28T03:48:40;14.55;;;8.95;;
23676;SDS011;31493;49.058;12.190;2023-02-28T03:51:12;13.10;;;8.82;;
23676;SDS011;31493;49.058;12.190;2023-02-28T03:53:44;14.60;;;8.98;;
23676;SDS011;31493;49.058;12.190;2023-02-28T03:56:17;13.85;;;8.52;;
23676;SDS011;31493;49.058;12.190;2023-02-28T03:58:47;17.15;;;9.10;;
23676;SDS011;31493;49.058;12.190;2023-02-28T04:01:20;16.33;;;9.00;;
23676;SDS011;31493;49.058;12.190;2023-02-28T04:03:50;15.52;;;8.82;;
23676;SDS011;31493;49.058;12.190;2023-02-28T04:06:19;15.55;;;9.07;;
23676;SDS011;31493;49.058;12.190;2023-02-28T04:08:48;15.40;;;8.68;;
23676;SDS011;31493;49.058;12.190;2023-02-28T04:11:21;16.60;;;9.05;;
23676;SDS011;31493;49.058;12.190;2023-02-28T04:13:50;15.45;;;9.65;;
23676;SDS011;31493;49.058;12.190;2023-02-28T04:16:17;13.20;;;8.70;;
23676;SDS011;31493;49.058;12.190;2023-02-28T04:18:44;15.88;;;9.43;;
23676;SDS011;31493;49.058;12.190;2023-02-28T04:21:11;14.13;;;8.88;;
23676;SDS011;31493;49.058;12.190;2023-02-28T04:23:40;17.17;;;9.32;;
23676;SDS011;31493;49.058;12.190;2023-02-28T04:26:07;17.60;;;10.18;;
23676;SDS011;31493;49.058;12.190;2023-02-28T04:28:34;14.55;;;9.32;;
23676;SDS011;31493;49.058;12.190;2023-02-28T04:31:01;16.42;;;9.77;;
23676;SDS011;31493;49.058;12.190;2023-02-28T04:33:30;15.95;;;8.45;;
23676;SDS011;31493;49.058;12.190;2023-02-28T04:35:59;16.27;;;9.07;;
23676;SDS011;31493;49.058;12.190;2023-02-28T04:38:26;15.75;;;9.40;;
23676;SDS011;31493;49.058;12.190;2023-02-28T04:40:56;15.77;;;10.00;;
23676;SDS011;31493;49.058;12.190;2023-02-28T04:43:23;15.13;;;9.18;;
23676;SDS011;31493;49.058;12.190;2023-02-28T04:45:50;15.25;;;9.38;;
23676;SDS011;31493;49.058;12.190;2023-02-28T04:48:17;18.20;;;9.75;;
23676;SDS011;31493;49.058;12.190;2023-02-28T04:50:44;15.77;;;9.90;;
23676;SDS011;31493;49.058;12.190;2023-02-28T04:53:11;17.92;;;10.48;;
23676;SDS011;31493;49.058;12.190;2023-02-28T04:55:38;17.73;;;10.10;;
23676;SDS011;31493;49.058;12.190;2023-02-28T04:58:07;17.27;;;9.18;;
23676;SDS011;31493;49.058;12.190;2023-02-28T05:00:34;15.98;;;9.63;;
23676;SDS011;31493;49.058;12.190;2023-02-28T05:03:01;16.80;;;9.43;;
23676;SDS011;31493;49.058;12.190;2023-02-28T05:05:28;17.95;;;9.85;;
23676;SDS011;31493;49.058;12.190;2023-02-28T05:07:56;18.77;;;10.43;;
23676;SDS011;31493;49.058;12.190;2023-02-28T05:10:23;16.83;;;9.63;;
23676;SDS011;31493;49.058;12.190;2023-02-28T05:12:50;16.48;;;10.10;;
23676;SDS011;31493;49.058;12.190;2023-02-28T05:15:18;20.88;;;10.82;;
23676;SDS011;31493;49.058;12.190;2023-02-28T05:17:45;19.50;;;10.65;;
23676;SDS011;31493;49.058;12.190;2023-02-28T05:20:12;17.77;;;9.43;;
23676;SDS011;31493;49.058;12.190;2023-02-28T05:22:40;20.30;;;10.68;;
23676;SDS011;31493;49.058;12.190;2023-02-28T05:25:08;22.42;;;10.52;;
23676;SDS011;31493;49.058;12.190;2023-02-28T05:27:37;19.20;;;11.07;;
23676;SDS011;31493;49.058;12.190;2023-02-28T05:30:05;17.90;;;10.45;;
23676;SDS011;31493;49.058;12.190;2023-02-28T05:32:37;18.48;;;10.13;;
23676;SDS011;31493;49.058;12.190;2023-02-28T05:37:31;17.33;;;9.63;;
23676;SDS011;31493;49.058;12.190;2023-02-28T05:39:58;16.70;;;9.27;;
23676;SDS011;31493;49.058;12.190;2023-02-28T05:42:25;18.38;;;9.90;;
23676;SDS011;31493;49.058;12.190;2023-02-28T05:44:52;17.13;;;9.68;;
23676;SDS011;31493;49.058;12.190;2023-02-28T05:47:19;17.48;;;10.07;;
23676;SDS011;31493;49.058;12.190;2023-02-28T05:49:48;13.63;;;8.55;;
23676;SDS011;31493;49.058;12.190;2023-02-28T05:52:15;17.48;;;10.02;;
23676;SDS011;31493;49.058;12.190;2023-02-28T05:54:42;15.93;;;9.57;;
23676;SDS011;31493;49.058;12.190;2023-02-28T05:57:09;18.05;;;9.93;;
23676;SDS011;31493;49.058;12.190;2023-02-28T05:59:36;13.65;;;8.23;;
23676;SDS011;31493;49.058;12.190;2023-02-28T06:02:05;15.00;;;9.10;;
23676;SDS011;31493;49.058;12.190;2023-02-28T06:04:32;16.63;;;10.07;;
23676;SDS011;31493;49.058;12.190;2023-02-28T06:07:01;16.10;;;9.00;;
23676;SDS011;31493;49.058;12.190;2023-02-28T06:09:29;20.88;;;9.60;;
23676;SDS011;31493;49.058;12.190;2023-02-28T06:11:57;15.27;;;8.03;;
23676;SDS011;31493;49.058;12.190;2023-02-28T06:14:24;17.13;;;10.65;;
23676;SDS011;31493;49.058;12.190;2023-02-28T06:16:52;17.13;;;9.75;;
23676;SDS011;31493;49.058;12.190;2023-02-28T06:19:19;15.68;;;9.80;;
23676;SDS011;31493;49.058;12.190;2023-02-28T06:21:48;14.10;;;8.60;;
23676;SDS011;31493;49.058;12.190;2023-02-28T06:24:17;14.10;;;9.25;;
23676;SDS011;31493;49.058;12.190;2023-02-28T06:26:44;18.50;;;10.07;;
23676;SDS011;31493;49.058;12.190;2023-02-28T06:29:11;16.00;;;9.63;;
23676;SDS011;31493;49.058;12.190;2023-02-28T06:31:42;19.10;;;9.02;;
23676;SDS011;31493;49.058;12.190;2023-02-28T06:34:10;18.08;;;9.77;;
23676;SDS011;31493;49.058;12.190;2023-02-28T06:36:37;23.95;;;13.07;;
23676;SDS011;31493;49.058;12.190;2023-02-28T06:39:05;16.23;;;9.68;;
23676;SDS011;31493;49.058;12.190;2023-02-28T06:41:33;18.10;;;9.52;;
23676;SDS011;31493;49.058;12.190;2023-02-28T06:44:03;17.63;;;9.60;;
23676;SDS011;31493;49.058;12.190;2023-02-28T06:46:31;13.43;;;8.13;;
23676;SDS011;31493;49.058;12.190;2023-02-28T06:48:59;16.00;;;9.40;;
23676;SDS011;31493;49.058;12.190;2023-02-28T06:51:26;14.65;;;9.15;;
23676;SDS011;31493;49.058;12.190;2023-02-28T06:53:53;16.60;;;9.07;;
23676;SDS011;31493;49.058;12.190;2023-02-28T06:56:20;24.50;;;13.15;;
23676;SDS011;31493;49.058;12.190;2023-02-28T06:58:48;14.23;;;8.52;;
23676;SDS011;31493;49.058;12.190;2023-02-28T07:01:18;18.02;;;8.90;;
23676;SDS011;31493;49.058;12.190;2023-02-28T07:03:45;18.90;;;11.27;;
23676;SDS011;31493;49.058;12.190;2023-02-28T07:06:17;14.95;;;9.02;;
23676;SDS011;31493;49.058;12.190;2023-02-28T07:08:44;15.85;;;9.20;;
23676;SDS011;31493;49.058;12.190;2023-02-28T07:11:11;11.23;;;8.02;;
23676;SDS011;31493;49.058;12.190;2023-02-28T07:13:38;14.43;;;8.07;;
23676;SDS011;31493;49.058;12.190;2023-02-28T07:16:09;18.05;;;9.70;;
23676;SDS011;31493;49.058;12.190;2023-02-28T07:18:37;16.08;;;8.48;;
23676;SDS011;31493;49.058;12.190;2023-02-28T07:21:05;19.73;;;9.40;;
23676;SDS011;31493;49.058;12.190;2023-02-28T07:23:33;14.50;;;8.85;;
23676;SDS011;31493;49.058;12.190;2023-02-28T07:26:01;14.13;;;7.10;;
23676;SDS011;31493;49.058;12.190;2023-02-28T07:28:28;16.15;;;9.38;;
23676;SDS011;31493;49.058;12.190;2023-02-28T07:30:55;12.30;;;7.15;;
23676;SDS011;31493;49.058;12.190;2023-02-28T07:33:23;16.05;;;8.98;;
23676;SDS011;31493;49.058;12.190;2023-02-28T07:35:50;14.75;;;8.32;;
23676;SDS011;31493;49.058;12.190;2023-02-28T07:38:17;10.32;;;6.03;;
23676;SDS011;31493;49.058;12.190;2023-02-28T07:40:44;14.07;;;8.18;;
23676;SDS011;31493;49.058;12.190;2023-02-28T07:43:11;14.15;;;8.75;;
23676;SDS011;31493;49.058;12.190;2023-02-28T07:45:38;14.93;;;8.65;;
23676;SDS011;31493;49.058;12.190;2023-02-28T07:48:05;12.60;;;6.63;;
23676;SDS011;31493;49.058;12.190;2023-02-28T07:50:36;17.00;;;9.05;;
23676;SDS011;31493;49.058;12.190;2023-02-28T07:53:03;13.88;;;8.43;;
23676;SDS011;31493;49.058;12.190;2023-02-28T07:55:30;15.25;;;8.40;;
23676;SDS011;31493;49.058;12.190;2023-02-28T07:57:58;14.10;;;8.07;;
23676;SDS011;31493;49.058;12.190;2023-02-28T08:00:25;16.00;;;8.80;;
23676;SDS011;31493;49.058;12.190;2023-02-28T08:02:52;18.52;;;8.60;;
23676;SDS011;31493;49.058;12.190;2023-02-28T08:05:19;15.48;;;9.60;;
23676;SDS011;31493;49.058;12.190;2023-02-28T08:07:48;21.65;;;10.07;;
23676;SDS011;31493;49.058;12.190;2023-02-28T08:10:15;16.35;;;9.77;;
23676;SDS011;31493;49.058;12.190;2023-02-28T08:12:42;18.85;;;9.68;;
23676;SDS011;31493;49.058;12.190;2023-02-28T08:15:10;15.32;;;8.40;;
23676;SDS011;31493;49.058;12.190;2023-02-28T08:17:37;13.88;;;7.95;;
23676;SDS011;31493;49.058;12.190;2023-02-28T08:20:04;17.50;;;10.10;;
23676;SDS011;31493;49.058;12.190;2023-02-28T08:22:32;17.58;;;9.63;;
23676;SDS011;31493;49.058;12.190;2023-02-28T08:25:01;15.00;;;8.40;;
23676;SDS011;31493;49.058;12.190;2023-02-28T08:27:28;11.30;;;6.13;;
23676;SDS011;31493;49.058;12.190;2023-02-28T08:29:55;9.40;;;5.90;;
23676;SDS011;31493;49.058;12.190;2023-02-28T08:32:22;18.70;;;10.38;;
23676;SDS011;31493;49.058;12.190;2023-02-28T08:34:49;17.10;;;9.25;;
23676;SDS011;31493;49.058;12.190;2023-02-28T08:37:16;17.25;;;9.77;;
23676;SDS011;31493;49.058;12.190;2023-02-28T08:39:43;14.60;;;9.43;;
23676;SDS011;31493;49.058;12.190;2023-02-28T08:42:12;15.07;;;9.10;;
23676;SDS011;31493;49.058;12.190;2023-02-28T08:44:39;14.23;;;6.80;;
23676;SDS011;31493;49.058;12.190;2023-02-28T08:47:06;13.52;;;8.05;;
23676;SDS011;31493;49.058;12.190;2023-02-28T08:49:33;12.93;;;7.28;;
23676;SDS011;31493;49.058;12.190;2023-02-28T08:52:00;17.13;;;9.95;;
23676;SDS011;31493;49.058;12.190;2023-02-28T08:54:27;16.17;;;10.18;;
23676;SDS011;31493;49.058;12.190;2023-02-28T08:56:57;14.07;;;6.97;;
23676;SDS011;31493;49.058;12.190;2023-02-28T08:59:25;17.42;;;9.82;;
23676;SDS011;31493;49.058;12.190;2023-02-28T09:01:52;17.17;;;5.88;;
23676;SDS011;31493;49.058;12.190;2023-02-28T09:04:19;18.08;;;10.07;;
23676;SDS011;31493;49.058;12.190;2023-02-28T09:06:46;16.30;;;8.95;;
23676;SDS011;31493;49.058;12.190;2023-02-28T09:09:14;17.63;;;9.20;;
23676;SDS011;31493;49.058;12.190;2023-02-28T09:11:41;14.93;;;8.57;;
23676;SDS011;31493;49.058;12.190;2023-02-28T09:14:08;20.00;;;10.02;;
23676;SDS011;31493;49.058;12.190;2023-02-28T09:16:37;16.17;;;9.50;;
23676;SDS011;31493;49.058;12.190;2023-02-28T09:19:04;13.93;;;7.38;;
23676;SDS011;31493;49.058;12.190;2023-02-28T09:21:31;11.77;;;6.80;;
23676;SDS011;31493;49.058;12.190;2023-02-28T09:23:58;16.23;;;8.85;;
23676;SDS011;31493;49.058;12.190;2023-02-28T09:26:26;14.70;;;7.85;;
23676;SDS011;31493;49.058;12.190;2023-02-28T09:28:54;14.65;;;9.23;;
23676;SDS011;31493;49.058;12.190;2023-02-28T09:31:22;15.45;;;8.52;;
23676;SDS011;31493;49.058;12.190;2023-02-28T09:33:53;12.00;;;7.10;;
23676;SDS011;31493;49.058;12.190;2023-02-28T09:36:21;16.98;;;10.00;;
23676;SDS011;31493;49.058;12.190;2023-02-28T09:38:49;17.30;;;9.27;;
23676;SDS011;31493;49.058;12.190;2023-02-28T09:43:47;17.60;;;9.95;;
23676;SDS011;31493;49.058;12.190;2023-02-28T09:46:21;19.10;;;10.43;;
23676;SDS011;31493;49.058;12.190;2023-02-28T09:48:56;12.75;;;7.15;;
23676;SDS011;31493;49.058;12.190;2023-02-28T09:51:32;16.73;;;8.85;;
23676;SDS011;31493;49.058;12.190;2023-02-28T09:54:04;14.80;;;7.75;;
23676;SDS011;31493;49.058;12.190;2023-02-28T09:56:33;16.48;;;7.32;;
23676;SDS011;31493;49.058;12.190;2023-02-28T09:59:05;15.63;;;9.25;;
23676;SDS011;31493;49.058;12.190;2023-02-28T10:01:42;20.95;;;9.60;;
23676;SDS011;31493;49.058;12.190;2023-02-28T10:04:23;15.20;;;9.57;;
23676;SDS011;31493;49.058;12.190;2023-02-28T10:07:01;14.77;;;8.02;;
23676;SDS011;31493;49.058;12.190;2023-02-28T10:09:43;17.27;;;9.35;;
23676;SDS011;31493;49.058;12.190;2023-02-28T10:12:13;15.38;;;8.65;;
23676;SDS011;31493;49.058;12.190;2023-02-28T10:14:43;17.20;;;8.90;;
23676;SDS011;31493;49.058;12.190;2023-02-28T10:17:14;15.23;;;8.35;;
23676;SDS011;31493;49.058;12.190;2023-02-28T10:19:49;16.65;;;10.00;;
23676;SDS011;31493;49.058;12.190;2023-02-28T10:22:26;12.48;;;6.68;;
23676;SDS011;31493;49.058;12.190;2023-02-28T10:24:55;16.35;;;9.18;;
23676;SDS011;31493;49.058;12.190;2023-02-28T10:27:29;13.73;;;8.50;;
23676;SDS011;31493;49.058;12.190;2023-02-28T10:29:57;17.58;;;9.88;;
23676;SDS011;31493;49.058;12.190;2023-02-28T10:32:27;15.60;;;8.60;;
23676;SDS011;31493;49.058;12.190;2023-02-28T10:34:59;17.33;;;9.68;;
23676;SDS011;31493;49.058;12.190;2023-02-28T10:37:27;16.30;;;10.50;;
23676;SDS011;31493;49.058;12.190;2023-02-28T10:39:54;18.42;;;9.75;;
23676;SDS011;31493;49.058;12.190;2023-02-28T10:42:22;14.88;;;8.77;;
23676;SDS011;31493;49.058;12.190;2023-02-28T10:45:10;13.45;;;8.63;;
23676;SDS011;31493;49.058;12.190;2023-02-28T10:47:41;16.90;;;9.75;;
23676;SDS011;31493;49.058;12.190;2023-02-28T10:50:29;18.42;;;10.45;;
23676;SDS011;31493;49.058;12.190;2023-02-28T10:53:05;17.40;;;9.52;;
23676;SDS011;31493;49.058;12.190;2023-02-28T10:55:41;18.70;;;9.77;;
23676;SDS011;31493;49.058;12.190;2023-02-28T10:58:18;17.40;;;11.23;;
23676;SDS011;31493;49.058;12.190;2023-02-28T11:00:48;16.58;;;9.55;;
23676;SDS011;31493;49.058;12.190;2023-02-28T11:03:23;21.58;;;11.75;;
23676;SDS011;31493;49.058;12.190;2023-02-28T11:05:53;17.83;;;10.45;;
23676;SDS011;31493;49.058;12.190;2023-02-28T11:08:20;16.20;;;9.95;;
23676;SDS011;31493;49.058;12.190;2023-02-28T11:10:48;23.23;;;10.68;;
23676;SDS011;31493;49.058;12.190;2023-02-28T11:13:21;15.45;;;10.18;;
23676;SDS011;31493;49.058;12.190;2023-02-28T11:15:54;16.55;;;9.98;;
23676;SDS011;31493;49.058;12.190;2023-02-28T11:18:24;12.45;;;7.25;;
23676;SDS011;31493;49.058;12.190;2023-02-28T11:20:57;15.07;;;8.65;;
23676;SDS011;31493;49.058;12.190;2023-02-28T11:23:26;19.48;;;11.95;;
23676;SDS011;31493;49.058;12.190;2023-02-28T11:25:58;21.58;;;11.50;;
23676;SDS011;31493;49.058;12.190;2023-02-28T11:28:29;18.00;;;8.88;;
23676;SDS011;31493;49.058;12.190;2023-02-28T11:31:03;18.52;;;10.68;;
23676;SDS011;31493;49.058;12.190;2023-02-28T11:33:32;16.73;;;9.60;;
23676;SDS011;31493;49.058;12.190;2023-02-28T11:36:11;19.80;;;10.65;;
23676;SDS011;31493;49.058;12.190;2023-02-28T11:38:40;14.85;;;8.98;;
23676;SDS011;31493;49.058;12.190;2023-02-28T11:41:11;16.65;;;10.20;;
23676;SDS011;31493;49.058;12.190;2023-02-28T11:43:52;15.27;;;9.48;;
23676;SDS011;31493;49.058;12.190;2023-02-28T11:46:31;17.77;;;10.82;;
23676;SDS011;31493;49.058;12.190;2023-02-28T11:49:05;16.15;;;10.18;;
23676;SDS011;31493;49.058;12.190;2023-02-28T11:51:45;16.02;;;10.20;;
23676;SDS011;31493;49.058;12.190;2023-02-28T11:54:27;18.23;;;10.35;;
23676;SDS011;31493;49.058;12.190;2023-02-28T11:57:22;18.60;;;9.90;;
23676;SDS011;31493;49.058;12.190;2023-02-28T12:00:01;17.08;;;9.45;;
23676;SDS011;31493;49.058;12.190;2023-02-28T12:02:35;22.88;;;13.80;;
23676;SDS011;31493;49.058;12.190;2023-02-28T12:05:24;19.13;;;11.23;;
23676;SDS011;31493;49.058;12.190;2023-02-28T12:08:00;16.75;;;9.70;;
23676;SDS011;31493;49.058;12.190;2023-02-28T12:10:38;23.73;;;13.70;;
23676;SDS011;31493;49.058;12.190;2023-02-28T12:13:16;16.48;;;9.80;;
23676;SDS011;31493;49.058;12.190;2023-02-28T12:15:54;16.45;;;9.85;;
23676;SDS011;31493;49.058;12.190;2023-02-28T12:18:38;22.33;;;12.40;;
23676;SDS011;31493;49.058;12.190;2023-02-28T12:21:18;22.98;;;12.35;;
23676;SDS011;31493;49.058;12.190;2023-02-28T12:24:00;20.30;;;11.45;;
23676;SDS011;31493;49.058;12.190;2023-02-28T12:26:37;19.70;;;11.45;;
23676;SDS011;31493;49.058;12.190;2023-02-28T12:29:10;19.85;;;11.07;;
23676;SDS011;31493;49.058;12.190;2023-02-28T12:31:44;14.57;;;7.88;;
23676;SDS011;31493;49.058;12.190;2023-02-28T12:34:16;17.95;;;8.88;;
23676;SDS011;31493;49.058;12.190;2023-02-28T12:36:47;23.83;;;9.80;;
23676;SDS011;31493;49.058;12.190;2023-02-28T12:39:20;16.20;;;8.20;;
23676;SDS011;31493;49.058;12.190;2023-02-28T12:41:53;12.98;;;8.27;;
23676;SDS011;31493;49.058;12.190;2023-02-28T12:44:26;19.75;;;12.57;;
23676;SDS011;31493;49.058;12.190;2023-02-28T12:46:58;15.55;;;8.57;;
23676;SDS011;31493;49.058;12.190;2023-02-28T12:49:28;16.00;;;8.90;;
23676;SDS011;31493;49.058;12.190;2023-02-28T12:52:00;15.45;;;7.70;;
23676;SDS011;31493;49.058;12.190;2023-02-28T12:54:31;11.60;;;7.70;;
23676;SDS011;31493;49.058;12.190;2023-02-28T12:57:06;25.88;;;12.25;;
23676;SDS011;31493;49.058;12.190;2023-02-28T12:59:41;14.25;;;7.28;;
23676;SDS011;31493;49.058;12.190;2023-02-28T13:05:50;21.55;;;11.77;;
23676;SDS011;31493;49.058;12.190;2023-02-28T13:11:31;33.08;;;17.42;;
23676;SDS011;31493;49.058;12.190;2023-02-28T13:14:03;16.35;;;11.48;;
23676;SDS011;31493;49.058;12.190;2023-02-28T13:16:54;15.68;;;9.07;;
23676;SDS011;31493;49.058;12.190;2023-02-28T13:19:25;16.58;;;10.63;;
23676;SDS011;31493;49.058;12.190;2023-02-28T13:21:55;15.73;;;9.88;;
23676;SDS011;31493;49.058;12.190;2023-02-28T13:24:43;13.63;;;8.98;;
23676;SDS011;31493;49.058;12.190;2023-02-28T13:29:57;20.48;;;10.00;;
23676;SDS011;31493;49.058;12.190;2023-02-28T13:32:32;15.23;;;10.45;;
23676;SDS011;31493;49.058;12.190;2023-02-28T13:44:02;14.63;;;8.23;;
23676;SDS011;31493;49.058;12.190;2023-02-28T13:46:31;16.17;;;9.43;;
23676;SDS011;31493;49.058;12.190;2023-02-28T13:51:45;16.00;;;8.93;;
23676;SDS011;31493;49.058;12.190;2023-02-28T13:56:52;15.88;;;9.05;;
23676;SDS011;31493;49.058;12.190;2023-02-28T13:59:30;15.10;;;9.00;;
23676;SDS011;31493;49.058;12.190;2023-02-28T14:02:28;15.55;;;9.15;;
23676;SDS011;31493;49.058;12.190;2023-02-28T14:05:09;14.55;;;8.80;;
23676;SDS011;31493;49.058;12.190;2023-02-28T14:07:43;15.65;;;8.07;;
23676;SDS011;31493;49.058;12.190;2023-02-28T14:10:21;15.07;;;8.10;;
23676;SDS011;31493;49.058;12.190;2023-02-28T14:12:56;14.73;;;8.85;;
23676;SDS011;31493;49.058;12.190;2023-02-28T14:15:28;14.55;;;9.15;;
23676;SDS011;31493;49.058;12.190;2023-02-28T14:18:03;17.65;;;10.13;;
23676;SDS011;31493;49.058;12.190;2023-02-28T14:20:40;16.25;;;9.63;;
23676;SDS011;31493;49.058;12.190;2023-02-28T14:25:40;17.20;;;10.05;;
23676;SDS011;31493;49.058;12.190;2023-02-28T14:28:17;17.02;;;9.60;;
23676;SDS011;31493;49.058;12.190;2023-02-28T14:31:01;17.10;;;9.65;;
23676;SDS011;31493;49.058;12.190;2023-02-28T14:33:45;17.38;;;10.65;;
23676;SDS011;31493;49.058;12.190;2023-02-28T14:36:26;15.52;;;9.82;;
23676;SDS011;31493;49.058;12.190;2023-02-28T14:38:57;14.93;;;8.93;;
23676;SDS011;31493;49.058;12.190;2023-02-28T14:41:29;12.82;;;9.20;;
23676;SDS011;31493;49.058;12.190;2023-02-28T14:43:58;17.55;;;9.68;;
23676;SDS011;31493;49.058;12.190;2023-02-28T14:46:28;16.00;;;10.43;;
23676;SDS011;31493;49.058;12.190;2023-02-28T14:49:03;19.15;;;10.18;;
23676;SDS011;31493;49.058;12.190;2023-02-28T14:51:32;26.33;;;14.27;;
23676;SDS011;31493;49.058;12.190;2023-02-28T14:54:00;22.30;;;12.63;;
23676;SDS011;31493;49.058;12.190;2023-02-28T14:56:30;19.17;;;11.55;;
23676;SDS011;31493;49.058;12.190;2023-02-28T14:59:01;21.38;;;12.65;;
23676;SDS011;31493;49.058;12.190;2023-02-28T15:01:29;15.68;;;8.88;;
23676;SDS011;31493;49.058;12.190;2023-02-28T15:03:58;18.13;;;11.43;;
23676;SDS011;31493;49.058;12.190;2023-02-28T15:06:28;15.05;;;9.95;;
23676;SDS011;31493;49.058;12.190;2023-02-28T15:09:09;15.77;;;10.18;;
23676;SDS011;31493;49.058;12.190;2023-02-28T15:11:37;23.55;;;13.65;;
23676;SDS011;31493;49.058;12.190;2023-02-28T15:14:05;17.40;;;9.88;;
23676;SDS011;31493;49.058;12.190;2023-02-28T15:16:36;19.35;;;12.23;;
23676;SDS011;31493;49.058;12.190;2023-02-28T15:19:06;20.58;;;12.35;;
23676;SDS011;31493;49.058;12.190;2023-02-28T15:21:40;17.38;;;9.82;;